Time;durP1;ratioP1;P1;durP2;ratioP2;P2;SDS_P1;SDS_P2;PMS_P1;PMS_P2;Temp;Humidity;BMP_temperature;BMP_pressure;BME280_temperature;BME280_humidity;BME280_pressure;Samples;Min_cycle;Max_cycle;Signal;HPM_P1;HPM_P2
2021/08/28 00:01:08;0.00;0.00;0.62;0.00;0.00;0.62;4.33;1.33;;;26.40;33.90;;;;;;2248921;61;20365;-62
2021/08/28 00:03:53;0.00;0.00;0.62;0.00;0.00;0.62;1.50;1.30;;;26.40;34.00;;;;;;2249426;61;20360;-60
2021/08/28 00:06:37;0.00;0.00;0.62;0.00;0.00;0.62;1.67;1.30;;;26.40;34.00;;;;;;2249926;61;20428;-63
2021/08/28 00:09:22;0.00;0.00;0.62;0.00;0.00;0.62;1.30;1.00;;;26.40;34.00;;;;;;2250097;61;20492;-59
2021/08/28 00:12:07;0.00;0.00;0.62;0.00;0.00;0.62;3.37;1.20;;;26.40;34.00;;;;;;2250178;61;20623;-60
2021/08/28 00:14:51;0.00;0.00;0.62;0.00;0.00;0.62;1.87;1.40;;;26.40;34.10;;;;;;2249664;61;20450;-61
2021/08/28 00:17:39;0.00;0.00;0.62;0.00;0.00;0.62;1.40;1.10;;;26.40;34.00;;;;;;2250309;61;20387;-62
2021/08/28 00:20:24;0.00;0.00;0.62;0.00;0.00;0.62;1.40;1.10;;;26.40;34.10;;;;;;2250150;61;20431;-64
2021/08/28 00:23:09;0.00;0.00;0.62;0.00;0.00;0.62;1.87;1.10;;;26.40;34.10;;;;;;2249490;61;20433;-63
2021/08/28 00:25:54;0.00;0.00;0.62;0.00;0.00;0.62;2.17;1.43;;;26.40;34.10;;;;;;2250211;61;20367;-61
2021/08/28 00:28:38;0.00;0.00;0.62;0.00;0.00;0.62;2.03;1.00;;;26.40;34.10;;;;;;2250119;61;20606;-63
2021/08/28 00:31:23;0.00;0.00;0.62;0.00;0.00;0.62;3.20;1.03;;;26.40;34.10;;;;;;2249680;61;20569;-62
2021/08/28 00:34:09;0.00;0.00;0.62;0.00;0.00;0.62;1.67;1.30;;;26.40;34.10;;;;;;2249575;61;20756;-64
2021/08/28 00:36:54;0.00;0.00;0.62;0.00;0.00;0.62;2.00;1.50;;;26.40;34.20;;;;;;2249836;61;20588;-62
2021/08/28 00:39:38;0.00;0.00;0.62;0.00;0.00;0.62;1.90;1.47;;;26.40;34.20;;;;;;2250354;61;20615;-64
2021/08/28 00:42:23;0.00;0.00;0.62;0.00;0.00;0.62;1.30;1.03;;;26.40;34.10;;;;;;2250020;61;20400;-63
2021/08/28 00:45:10;0.00;0.00;0.62;0.00;0.00;0.62;2.13;1.20;;;26.40;34.10;;;;;;2249670;61;20375;-62
2021/08/28 00:47:57;0.00;0.00;0.62;0.00;0.00;0.62;1.30;0.90;;;26.40;34.10;;;;;;2253929;61;20380;-62
2021/08/28 00:50:44;0.00;0.00;0.62;0.00;0.00;0.62;1.50;1.30;;;26.40;34.20;;;;;;2253771;61;20403;-61
2021/08/28 00:53:29;0.00;0.00;0.62;0.00;0.00;0.62;1.83;1.30;;;26.40;34.20;;;;;;2253335;61;20418;-63
2021/08/28 00:56:13;0.00;0.00;0.62;0.00;0.00;0.62;1.83;1.20;;;26.40;34.90;;;;;;2253624;61;20584;-64
2021/08/28 00:58:58;0.00;0.00;0.62;0.00;0.00;0.62;1.50;1.07;;;26.40;34.20;;;;;;2253214;61;20396;-61
2021/08/28 01:01:45;0.00;0.00;0.62;0.00;0.00;0.62;1.47;1.07;;;26.40;34.20;;;;;;2254327;61;20363;-63
2021/08/28 01:04:39;0.00;0.00;0.62;0.00;0.00;0.62;2.03;1.20;;;26.40;34.20;;;;;;2253983;61;20363;-63
2021/08/28 01:07:43;0.00;0.00;0.62;0.00;0.00;0.62;1.40;1.10;;;26.40;34.20;;;;;;2252688;61;20653;-62
2021/08/28 01:10:53;0.00;0.00;0.62;0.00;0.00;0.62;2.13;1.13;;;26.40;35.00;;;;;;2253606;61;20412;-62
2021/08/28 01:14:06;0.00;0.00;0.62;0.00;0.00;0.62;2.00;1.10;;;26.40;34.30;;;;;;2253542;61;20419;-62
2021/08/28 01:16:57;0.00;0.00;0.62;0.00;0.00;0.62;1.50;0.90;;;26.30;34.20;;;;;;2253648;61;20363;-61
2021/08/28 01:19:52;0.00;0.00;0.62;0.00;0.00;0.62;1.83;1.13;;;26.30;34.30;;;;;;2253502;61;20427;-61
2021/08/28 01:23:01;0.00;0.00;0.62;0.00;0.00;0.62;1.50;1.30;;;26.40;34.30;;;;;;2253766;61;20586;-61
2021/08/28 01:26:15;0.00;0.00;0.62;0.00;0.00;0.62;1.40;0.90;;;26.40;34.30;;;;;;2253235;61;20368;-62
2021/08/28 01:29:19;0.00;0.00;0.62;0.00;0.00;0.62;1.93;1.13;;;26.30;34.30;;;;;;2252853;61;20787;-62
2021/08/28 01:32:07;0.00;0.00;0.62;0.00;0.00;0.62;2.70;1.30;;;26.40;34.40;;;;;;2253881;61;20371;-62
2021/08/28 01:34:54;0.00;0.00;0.62;0.00;0.00;0.62;2.87;1.00;;;26.30;34.30;;;;;;2253492;61;20367;-63
2021/08/28 01:37:40;0.00;0.00;0.62;0.00;0.00;0.62;1.80;1.20;;;26.30;34.30;;;;;;2253061;61;20762;-62
2021/08/28 01:40:45;0.00;0.00;0.62;0.00;0.00;0.62;1.77;1.23;;;26.30;34.30;;;;;;2254017;61;20443;-62
2021/08/28 01:43:31;0.00;0.00;0.62;0.00;0.00;0.62;1.80;1.30;;;26.30;34.30;;;;;;2253153;61;20369;-61
2021/08/28 01:46:23;0.00;0.00;0.62;0.00;0.00;0.62;1.90;1.23;;;26.30;34.30;;;;;;2254168;61;20448;-62
2021/08/28 01:49:13;0.00;0.00;0.62;0.00;0.00;0.62;3.30;1.27;;;26.30;34.30;;;;;;2256103;61;20388;-63
2021/08/28 01:51:59;0.00;0.00;0.62;0.00;0.00;0.62;1.70;1.27;;;26.30;34.90;;;;;;2253357;61;20363;-62
2021/08/28 01:54:49;0.00;0.00;0.62;0.00;0.00;0.62;1.90;1.40;;;26.30;34.30;;;;;;2256333;61;20395;-62
2021/08/28 01:57:35;0.00;0.00;0.62;0.00;0.00;0.62;1.30;1.10;;;26.30;34.30;;;;;;2255671;61;20464;-61
2021/08/28 02:00:43;0.00;0.00;0.62;0.00;0.00;0.62;1.60;1.10;;;26.30;34.30;;;;;;2251171;61;20431;-63
2021/08/28 02:03:32;0.00;0.00;0.62;0.00;0.00;0.62;1.63;1.10;;;26.30;34.30;;;;;;2255998;61;20359;-62
2021/08/28 02:06:28;0.00;0.00;0.62;0.00;0.00;0.62;1.60;1.17;;;26.30;34.30;;;;;;2255483;61;20488;-62
2021/08/28 02:09:22;0.00;0.00;0.62;0.00;0.00;0.62;2.30;1.17;;;26.30;34.30;;;;;;2256408;61;20739;-63
2021/08/28 02:12:15;0.00;0.00;0.62;0.00;0.00;0.62;1.87;1.10;;;26.30;34.30;;;;;;2253881;61;20391;-62
2021/08/28 02:15:07;0.00;0.00;0.62;0.00;0.00;0.62;1.50;1.10;;;26.30;34.30;;;;;;2255979;61;20368;-62
2021/08/28 02:18:00;0.00;0.00;0.62;0.00;0.00;0.62;1.30;1.00;;;26.30;34.30;;;;;;2255920;61;20444;-63
2021/08/28 02:20:53;0.00;0.00;0.62;0.00;0.00;0.62;2.00;1.23;;;26.30;34.30;;;;;;2255585;61;20441;-62
2021/08/28 02:23:46;0.00;0.00;0.62;0.00;0.00;0.62;1.70;1.17;;;26.30;34.30;;;;;;2256249;61;20395;-62
2021/08/28 02:26:44;0.00;0.00;0.62;0.00;0.00;0.62;1.30;1.03;;;26.30;34.30;;;;;;2255871;61;20399;-62
2021/08/28 02:29:37;0.00;0.00;0.62;0.00;0.00;0.62;1.80;1.30;;;26.30;34.30;;;;;;2255856;61;20615;-63
2021/08/28 02:32:22;0.00;0.00;0.62;0.00;0.00;0.62;1.53;1.20;;;26.30;34.40;;;;;;2256205;61;20363;-62
2021/08/28 02:35:10;0.00;0.00;0.62;0.00;0.00;0.62;1.40;1.03;;;26.30;35.10;;;;;;2253527;61;20360;-62
2021/08/28 02:37:57;0.00;0.00;0.62;0.00;0.00;0.62;1.30;1.13;;;26.30;34.40;;;;;;2255999;61;20415;-63
2021/08/28 02:40:46;0.00;0.00;0.62;0.00;0.00;0.62;1.90;1.17;;;26.30;34.40;;;;;;2256044;61;20387;-61
2021/08/28 02:43:31;0.00;0.00;0.62;0.00;0.00;0.62;1.57;1.33;;;26.30;34.40;;;;;;2252996;61;20620;-62
2021/08/28 02:46:19;0.00;0.00;0.62;0.00;0.00;0.62;2.07;1.50;;;26.30;34.40;;;;;;2256206;61;20423;-61
2021/08/28 02:49:05;0.00;0.00;0.62;0.00;0.00;0.62;1.47;1.10;;;26.30;34.40;;;;;;2253511;61;20614;-63
2021/08/28 02:51:51;0.00;0.00;0.62;0.00;0.00;0.62;2.43;1.20;;;26.30;34.40;;;;;;2253088;61;20581;-62
2021/08/28 02:54:42;0.00;0.00;0.62;0.00;0.00;0.62;2.10;1.40;;;26.30;34.40;;;;;;2253124;61;20421;-62
2021/08/28 02:57:29;0.00;0.00;0.62;0.00;0.00;0.62;2.00;1.43;;;26.20;34.40;;;;;;2252877;61;20384;-63
2021/08/28 03:00:16;0.00;0.00;0.62;0.00;0.00;0.62;2.10;1.33;;;26.20;34.40;;;;;;2253601;61;20387;-62
2021/08/28 03:03:02;0.00;0.00;0.62;0.00;0.00;0.62;2.37;1.03;;;26.30;34.40;;;;;;2253276;61;20364;-62
2021/08/28 03:05:51;0.00;0.00;0.62;0.00;0.00;0.62;2.60;1.53;;;26.30;34.40;;;;;;2252580;61;20431;-63
2021/08/28 03:08:37;0.00;0.00;0.62;0.00;0.00;0.62;1.40;1.20;;;26.30;34.40;;;;;;2253536;61;20380;-62
2021/08/28 03:11:23;0.00;0.00;0.62;0.00;0.00;0.62;1.77;1.37;;;26.30;34.40;;;;;;2253396;61;20367;-62
2021/08/28 03:14:08;0.00;0.00;0.62;0.00;0.00;0.62;1.67;1.30;;;26.20;34.40;;;;;;2252901;61;20469;-61
2021/08/28 03:16:57;0.00;0.00;0.62;0.00;0.00;0.62;1.90;1.53;;;26.20;34.40;;;;;;2253107;61;20755;-63
2021/08/28 03:19:58;0.00;0.00;0.62;0.00;0.00;0.62;2.27;1.60;;;26.20;34.40;;;;;;2252483;61;20430;-62
2021/08/28 03:22:46;0.00;0.00;0.62;0.00;0.00;0.62;1.87;1.30;;;26.20;34.40;;;;;;2253347;61;20358;-62
2021/08/28 03:25:32;0.00;0.00;0.62;0.00;0.00;0.62;2.03;1.83;;;26.20;34.40;;;;;;2253174;61;20485;-63
2021/08/28 03:28:19;0.00;0.00;0.62;0.00;0.00;0.62;1.50;1.30;;;26.20;34.40;;;;;;2253034;61;20414;-63
2021/08/28 03:31:06;0.00;0.00;0.62;0.00;0.00;0.62;1.50;1.27;;;26.20;34.40;;;;;;2253141;61;20427;-61
2021/08/28 03:33:53;0.00;0.00;0.62;0.00;0.00;0.62;2.57;1.60;;;26.20;34.40;;;;;;2252812;61;20396;-62
2021/08/28 03:36:38;0.00;0.00;0.62;0.00;0.00;0.62;1.70;1.43;;;26.20;34.40;;;;;;2252886;61;20359;-61
2021/08/28 03:39:26;0.00;0.00;0.62;0.00;0.00;0.62;1.60;1.30;;;26.20;34.40;;;;;;2252837;61;20779;-62
2021/08/28 03:42:12;0.00;0.00;0.62;0.00;0.00;0.62;1.50;1.30;;;26.20;34.40;;;;;;2252447;61;20402;-62
2021/08/28 03:45:04;0.00;0.00;0.62;0.00;0.00;0.62;2.37;1.47;;;26.20;34.50;;;;;;2253439;61;20403;-61
2021/08/28 03:47:49;0.00;0.00;0.62;0.00;0.00;0.62;1.93;1.70;;;26.20;34.50;;;;;;2255666;61;20620;-61
2021/08/28 03:50:34;0.00;0.00;0.62;0.00;0.00;0.62;1.70;1.33;;;26.20;34.40;;;;;;2252991;61;20407;-62
2021/08/28 03:53:20;0.00;0.00;0.62;0.00;0.00;0.62;2.03;1.70;;;26.20;34.50;;;;;;2255823;61;20411;-63
2021/08/28 03:56:06;0.00;0.00;0.62;0.00;0.00;0.62;2.37;1.90;;;26.20;34.50;;;;;;2255393;61;20733;-62
2021/08/28 03:58:51;0.00;0.00;0.62;0.00;0.00;0.62;2.33;1.60;;;26.20;34.50;;;;;;2255594;61;20391;-61
2021/08/28 04:01:37;0.00;0.00;0.62;0.00;0.00;0.62;2.27;1.67;;;26.20;34.50;;;;;;2255800;61;20402;-62
2021/08/28 04:04:25;0.00;0.00;0.62;0.00;0.00;0.62;1.80;1.60;;;26.20;34.50;;;;;;2252627;61;20371;-62
2021/08/28 04:07:10;0.00;0.00;0.62;0.00;0.00;0.62;2.90;1.93;;;26.20;34.50;;;;;;2256106;61;20572;-61
2021/08/28 04:09:55;0.00;0.00;0.62;0.00;0.00;0.62;2.00;1.80;;;26.20;34.50;;;;;;2255795;61;20356;-63
2021/08/28 04:12:40;0.00;0.00;0.62;0.00;0.00;0.62;1.87;1.40;;;26.20;34.50;;;;;;2252899;61;20363;-63
2021/08/28 04:15:26;0.00;0.00;0.62;0.00;0.00;0.62;1.53;1.37;;;26.10;34.40;;;;;;2255909;61;20359;-63
2021/08/28 04:18:38;0.00;0.00;0.62;0.00;0.00;0.62;2.20;1.73;;;26.20;34.50;;;;;;2255588;61;20600;-62
2021/08/28 04:21:39;0.00;0.00;0.62;0.00;0.00;0.62;1.70;1.60;;;26.20;34.50;;;;;;2256119;61;20582;-63
2021/08/28 04:24:26;0.00;0.00;0.62;0.00;0.00;0.62;1.80;1.50;;;26.10;34.50;;;;;;2255615;61;20736;-63
2021/08/28 04:27:29;0.00;0.00;0.62;0.00;0.00;0.62;3.80;1.83;;;26.10;34.50;;;;;;2252751;61;20383;-62
2021/08/28 04:30:14;0.00;0.00;0.62;0.00;0.00;0.62;2.13;1.93;;;26.10;34.50;;;;;;2255765;61;20379;-65
2021/08/28 04:32:59;0.00;0.00;0.62;0.00;0.00;0.62;1.80;1.60;;;26.10;34.50;;;;;;2255494;61;20367;-63
2021/08/28 04:35:45;0.00;0.00;0.62;0.00;0.00;0.62;2.00;1.57;;;26.10;34.60;;;;;;2255645;61;20431;-62
2021/08/28 04:38:30;0.00;0.00;0.62;0.00;0.00;0.62;1.70;1.50;;;26.10;34.60;;;;;;2255557;61;20387;-62
2021/08/28 04:41:15;0.00;0.00;0.62;0.00;0.00;0.62;2.33;1.60;;;26.10;34.60;;;;;;2255467;61;20368;-62
2021/08/28 04:44:00;0.00;0.00;0.62;0.00;0.00;0.62;1.93;1.50;;;26.10;34.60;;;;;;2253569;61;20363;-63
2021/08/28 04:46:49;0.00;0.00;0.62;0.00;0.00;0.62;1.90;1.60;;;26.10;34.60;;;;;;2253158;61;20594;-63
2021/08/28 04:49:35;0.00;0.00;0.62;0.00;0.00;0.62;1.97;1.77;;;26.10;34.70;;;;;;2255181;61;20395;-62
2021/08/28 04:52:39;0.00;0.00;0.62;0.00;0.00;0.62;2.00;1.80;;;26.10;34.70;;;;;;2256358;61;20589;-63
2021/08/28 04:55:24;0.00;0.00;0.62;0.00;0.00;0.62;1.93;1.50;;;26.10;34.70;;;;;;2253877;61;20459;-63
2021/08/28 04:58:08;0.00;0.00;0.62;0.00;0.00;0.62;2.17;1.90;;;26.10;34.70;;;;;;2256096;61;20387;-61
2021/08/28 05:00:57;0.00;0.00;0.62;0.00;0.00;0.62;2.23;1.83;;;26.10;34.70;;;;;;2256171;61;20387;-62
2021/08/28 05:04:00;0.00;0.00;0.62;0.00;0.00;0.62;1.90;1.73;;;26.10;34.70;;;;;;2253448;61;20767;-62
2021/08/28 05:06:45;0.00;0.00;0.62;0.00;0.00;0.62;2.17;1.70;;;26.10;34.70;;;;;;2256516;61;20364;-63
2021/08/28 05:09:34;0.00;0.00;0.62;0.00;0.00;0.62;2.33;1.80;;;26.10;34.70;;;;;;2256420;61;20431;-63
2021/08/28 05:12:20;0.00;0.00;0.62;0.00;0.00;0.62;2.50;1.70;;;26.10;34.70;;;;;;2253822;61;20364;-61
2021/08/28 05:15:16;0.00;0.00;0.62;0.00;0.00;0.62;2.10;1.40;;;26.10;34.70;;;;;;2256201;61;20435;-61
2021/08/28 05:18:08;0.00;0.00;0.62;0.00;0.00;0.62;1.97;1.77;;;26.10;34.70;;;;;;2256062;61;20423;-61
2021/08/28 05:20:52;0.00;0.00;0.62;0.00;0.00;0.62;2.03;1.70;;;26.00;34.70;;;;;;2256582;61;20390;-62
2021/08/28 05:24:06;0.00;0.00;0.62;0.00;0.00;0.62;1.93;1.73;;;26.10;34.80;;;;;;2253573;61;20395;-62
2021/08/28 05:27:00;0.00;0.00;0.62;0.00;0.00;0.62;2.20;1.70;;;26.10;34.80;;;;;;2255587;61;20364;-62
2021/08/28 05:29:45;0.00;0.00;0.62;0.00;0.00;0.62;2.63;2.30;;;26.10;34.80;;;;;;2256135;61;20388;-63
2021/08/28 05:32:30;0.00;0.00;0.62;0.00;0.00;0.62;1.93;1.73;;;26.10;34.80;;;;;;2253832;61;20392;-62
2021/08/28 05:35:16;0.00;0.00;0.62;0.00;0.00;0.62;2.30;2.10;;;26.00;34.70;;;;;;2256115;61;20395;-63
2021/08/28 05:38:20;0.00;0.00;0.62;0.00;0.00;0.62;2.17;1.97;;;26.00;34.70;;;;;;2254012;61;20780;-62
2021/08/28 05:41:08;0.00;0.00;0.62;0.00;0.00;0.62;2.07;1.57;;;26.10;34.80;;;;;;2255730;61;20356;-63
2021/08/28 05:43:54;0.00;0.00;0.62;0.00;0.00;0.62;2.37;1.67;;;26.00;34.70;;;;;;2256456;61;20403;-62
2021/08/28 05:46:54;0.00;0.00;0.62;0.00;0.00;0.62;1.90;1.70;;;26.00;34.70;;;;;;2256051;61;20383;-63
2021/08/28 05:49:40;0.00;0.00;0.62;0.00;0.00;0.62;2.30;1.73;;;26.00;34.70;;;;;;2253181;61;20419;-63
2021/08/28 05:52:25;0.00;0.00;0.62;0.00;0.00;0.62;3.10;1.77;;;26.00;34.80;;;;;;2253439;61;20403;-62
2021/08/28 05:55:13;0.00;0.00;0.62;0.00;0.00;0.62;2.53;2.13;;;26.00;34.80;;;;;;2253287;61;20367;-63
2021/08/28 05:57:58;0.00;0.00;0.62;0.00;0.00;0.62;2.57;2.17;;;26.00;34.80;;;;;;2253934;61;20458;-62
2021/08/28 06:00:45;0.00;0.00;0.62;0.00;0.00;0.62;3.37;2.20;;;26.00;34.70;;;;;;2253394;61;20384;-63
2021/08/28 06:03:29;0.00;0.00;0.62;0.00;0.00;0.62;2.07;1.87;;;26.00;34.80;;;;;;2252479;61;20388;-62
2021/08/28 06:06:20;0.00;0.00;0.62;0.00;0.00;0.62;3.07;1.90;;;26.00;34.80;;;;;;2253678;61;20363;-64
2021/08/28 06:09:23;0.00;0.00;0.62;0.00;0.00;0.62;2.77;1.90;;;26.00;34.80;;;;;;2253548;61;20597;-63
2021/08/28 06:12:36;0.00;0.00;0.62;0.00;0.00;0.62;2.77;2.00;;;26.00;34.80;;;;;;2251359;61;20460;-64
2021/08/28 06:15:45;0.00;0.00;0.62;0.00;0.00;0.62;2.97;1.90;;;26.00;34.80;;;;;;2253478;61;20728;-64
2021/08/28 06:18:32;0.00;0.00;0.62;0.00;0.00;0.62;2.43;1.97;;;26.00;34.80;;;;;;2252664;61;20387;-65
2021/08/28 06:21:16;0.00;0.00;0.62;0.00;0.00;0.62;3.30;2.00;;;26.00;34.80;;;;;;2253423;61;20385;-62
2021/08/28 06:24:01;0.00;0.00;0.62;0.00;0.00;0.62;2.63;2.03;;;26.00;34.90;;;;;;2253384;61;20695;-64
2021/08/28 06:26:55;0.00;0.00;0.62;0.00;0.00;0.62;2.13;1.90;;;26.00;34.90;;;;;;2253216;61;20416;-65
2021/08/28 06:29:40;0.00;0.00;0.62;0.00;0.00;0.62;2.50;2.30;;;26.00;35.00;;;;;;2253845;61;20808;-66
2021/08/28 06:32:27;0.00;0.00;0.62;0.00;0.00;0.62;2.50;2.00;;;26.00;34.90;;;;;;2252578;61;20379;-64
2021/08/28 06:35:12;0.00;0.00;0.62;0.00;0.00;0.62;3.10;2.30;;;26.00;35.00;;;;;;2253605;61;20414;-63
2021/08/28 06:38:00;0.00;0.00;0.62;0.00;0.00;0.62;2.50;2.30;;;26.00;35.00;;;;;;2252852;61;20691;-63
2021/08/28 06:41:20;0.00;0.00;0.62;0.00;0.00;0.62;2.90;1.80;;;26.00;35.00;;;;;;2253601;61;20356;-62
2021/08/28 06:44:23;0.00;0.00;0.62;0.00;0.00;0.62;2.93;2.00;;;26.00;35.00;;;;;;2253406;61;20431;-64
2021/08/28 06:47:48;0.00;0.00;0.62;0.00;0.00;0.62;2.73;2.47;;;26.00;35.10;;;;;;2244231;61;20457;-62
2021/08/28 06:50:59;0.00;0.00;0.62;0.00;0.00;0.62;2.70;2.20;;;26.00;35.10;;;;;;2244789;61;20393;-64
2021/08/28 06:54:03;0.00;0.00;0.62;0.00;0.00;0.62;3.17;2.10;;;26.00;35.10;;;;;;2249355;61;20405;-64
2021/08/28 06:57:25;0.00;0.00;0.62;0.00;0.00;0.62;4.97;2.20;;;26.10;35.20;;;;;;2250032;61;20393;-61
2021/08/28 07:00:36;0.00;0.00;0.62;0.00;0.00;0.62;5.13;2.07;;;26.10;35.10;;;;;;2249756;61;20435;-64
2021/08/28 07:03:51;0.00;0.00;0.62;0.00;0.00;0.62;3.03;2.43;;;26.10;35.10;;;;;;2248940;61;20381;-61
2021/08/28 07:06:47;0.00;0.00;0.62;0.00;0.00;0.62;3.37;2.67;;;26.10;35.20;;;;;;2249000;61;20602;-61
2021/08/28 07:09:31;0.00;0.00;0.62;0.00;0.00;0.62;2.67;2.20;;;26.10;35.20;;;;;;2248682;61;20404;-60
2021/08/28 07:12:16;0.00;0.00;0.62;0.00;0.00;0.62;2.60;2.40;;;26.10;35.20;;;;;;2249806;61;20696;-63
2021/08/28 07:15:02;0.00;0.00;0.62;0.00;0.00;0.62;2.57;1.70;;;26.10;35.20;;;;;;2248916;61;20440;-61
2021/08/28 07:18:09;0.00;0.00;0.62;0.00;0.00;0.62;2.80;2.60;;;26.10;35.20;;;;;;2248787;61;20384;-62
2021/08/28 07:20:54;0.00;0.00;0.62;0.00;0.00;0.62;2.77;2.53;;;26.10;35.20;;;;;;2249036;61;20399;-62
2021/08/28 07:23:40;0.00;0.00;0.62;0.00;0.00;0.62;2.80;2.40;;;26.10;35.20;;;;;;2248982;61;20444;-60
2021/08/28 07:26:33;0.00;0.00;0.62;0.00;0.00;0.62;3.10;2.80;;;26.20;35.30;;;;;;2249250;61;20412;-59
2021/08/28 07:29:37;0.00;0.00;0.62;0.00;0.00;0.62;3.23;2.93;;;26.20;35.30;;;;;;2249531;61;20356;-61
2021/08/28 07:32:23;0.00;0.00;0.62;0.00;0.00;0.62;2.87;2.43;;;26.20;35.30;;;;;;2248657;61;20727;-63
2021/08/28 07:35:08;0.00;0.00;0.62;0.00;0.00;0.62;3.00;2.37;;;26.20;35.30;;;;;;2249275;61;20489;-62
2021/08/28 07:37:55;0.00;0.00;0.62;0.00;0.00;0.62;2.67;2.40;;;26.20;35.30;;;;;;2248980;61;20387;-65
2021/08/28 07:40:40;0.00;0.00;0.62;0.00;0.00;0.62;2.47;2.27;;;26.20;36.00;;;;;;2249081;61;20396;-61
2021/08/28 07:43:25;0.00;0.00;0.62;0.00;0.00;0.62;2.90;2.60;;;26.20;35.30;;;;;;2248926;61;20732;-62
2021/08/28 07:46:17;0.00;0.00;0.62;0.00;0.00;0.62;2.63;2.43;;;26.20;35.30;;;;;;2251551;61;20382;-61
2021/08/28 07:49:11;0.00;0.00;0.62;0.00;0.00;0.62;3.00;2.70;;;26.20;35.30;;;;;;2253273;61;20411;-62
2021/08/28 07:51:56;0.00;0.00;0.62;0.00;0.00;0.62;3.00;2.73;;;26.30;35.30;;;;;;2253173;61;20484;-62
2021/08/28 07:54:42;0.00;0.00;0.62;0.00;0.00;0.62;2.93;2.37;;;26.30;35.30;;;;;;2252288;61;20363;-64
2021/08/28 07:57:28;0.00;0.00;0.62;0.00;0.00;0.62;2.97;2.70;;;26.30;35.30;;;;;;2252935;61;20601;-63
2021/08/28 08:00:14;0.00;0.00;0.62;0.00;0.00;0.62;3.00;2.53;;;26.30;35.20;;;;;;2252905;61;20430;-61
2021/08/28 08:03:01;0.00;0.00;0.62;0.00;0.00;0.62;3.40;3.10;;;26.30;35.20;;;;;;2252999;61;20372;-64
2021/08/28 08:06:08;0.00;0.00;0.62;0.00;0.00;0.62;3.27;2.77;;;26.30;35.10;;;;;;2253319;61;20631;-62
2021/08/28 08:08:59;0.00;0.00;0.62;0.00;0.00;0.62;3.67;3.30;;;26.30;35.10;;;;;;2253042;61;20589;-64
2021/08/28 08:11:57;0.00;0.00;0.62;0.00;0.00;0.62;3.07;2.73;;;26.30;35.10;;;;;;2253797;61;20368;-61
2021/08/28 08:15:01;0.00;0.00;0.62;0.00;0.00;0.62;3.20;2.80;;;26.30;35.10;;;;;;2253257;61;20368;-62
2021/08/28 08:21:15;0.00;0.00;0.62;0.00;0.00;0.62;3.23;2.60;;;26.30;35.20;;;;;;2353097;56;20412;-63
2021/08/28 08:27:15;0.00;0.00;0.62;0.00;0.00;0.62;3.00;2.70;;;26.40;35.30;;;;;;2379384;56;20444;-59
2021/08/28 08:30:29;0.00;0.00;0.62;0.00;0.00;0.62;7.40;2.63;;;26.40;35.30;;;;;;2243401;61;20381;-61
2021/08/28 08:33:26;0.00;0.00;0.62;0.00;0.00;0.62;3.23;2.93;;;26.40;35.30;;;;;;2243152;61;20365;-61
2021/08/28 08:36:14;0.00;0.00;0.62;0.00;0.00;0.62;3.10;2.73;;;26.40;35.30;;;;;;2242838;61;20353;-59
2021/08/28 08:38:58;0.00;0.00;0.62;0.00;0.00;0.62;3.10;2.80;;;26.40;35.30;;;;;;2243306;61;20446;-61
2021/08/28 08:41:46;0.00;0.00;0.62;0.00;0.00;0.62;3.07;2.77;;;26.50;35.40;;;;;;2242229;61;20421;-61
2021/08/28 08:44:32;0.00;0.00;0.62;0.00;0.00;0.62;2.93;2.70;;;26.40;35.40;;;;;;2243250;61;20421;-60
2021/08/28 08:47:18;0.00;0.00;0.62;0.00;0.00;0.62;3.60;2.53;;;26.50;35.40;;;;;;2243255;61;20381;-61
2021/08/28 08:50:05;0.00;0.00;0.62;0.00;0.00;0.62;3.23;2.93;;;26.50;35.40;;;;;;2242311;61;20357;-61
2021/08/28 08:53:04;0.00;0.00;0.62;0.00;0.00;0.62;2.80;2.60;;;26.50;35.40;;;;;;2245980;61;20393;-61
2021/08/28 08:55:53;0.00;0.00;0.62;0.00;0.00;0.62;3.07;2.77;;;26.50;35.30;;;;;;2242454;61;20417;-61
2021/08/28 08:58:39;0.00;0.00;0.62;0.00;0.00;0.62;3.03;2.80;;;26.50;35.20;;;;;;2245876;61;20591;-61
2021/08/28 09:01:25;0.00;0.00;0.62;0.00;0.00;0.62;3.33;3.00;;;26.50;35.20;;;;;;2243353;61;20349;-60
2021/08/28 09:04:29;0.00;0.00;0.62;0.00;0.00;0.62;3.13;2.83;;;26.50;35.20;;;;;;2245395;61;20434;-59
2021/08/28 09:07:14;0.00;0.00;0.62;0.00;0.00;0.62;4.63;2.80;;;26.50;35.20;;;;;;2243255;61;20373;-62
2021/08/28 09:09:58;0.00;0.00;0.62;0.00;0.00;0.62;2.63;2.43;;;26.50;35.20;;;;;;2246353;61;20354;-62
2021/08/28 09:12:43;0.00;0.00;0.62;0.00;0.00;0.62;2.43;2.23;;;26.50;35.20;;;;;;2245387;61;20572;-60
2021/08/28 09:15:41;0.00;0.00;0.62;0.00;0.00;0.62;3.03;2.70;;;26.50;35.30;;;;;;2246377;61;20733;-59
2021/08/28 09:18:27;0.00;0.00;0.62;0.00;0.00;0.62;3.03;2.73;;;26.60;35.40;;;;;;2245316;61;20770;-61
2021/08/28 09:21:12;0.00;0.00;0.62;0.00;0.00;0.62;3.13;2.83;;;26.60;35.30;;;;;;2246376;61;20381;-62
2021/08/28 09:23:39;0.00;0.00;0.62;0.00;0.00;0.62;3.30;3.00;;;26.60;35.30;;;;;;2246316;61;20350;-61
2021/08/28 09:26:24;0.00;0.00;0.62;0.00;0.00;0.62;2.57;2.33;;;26.60;35.30;;;;;;2245117;61;20667;-61
2021/08/28 09:28:54;0.00;0.00;0.62;0.00;0.00;0.62;2.83;2.23;;;26.60;35.20;;;;;;2246303;61;20664;-62
2021/08/28 09:31:36;0.00;0.00;0.62;0.00;0.00;0.62;2.47;2.23;;;26.60;35.20;;;;;;2246306;61;20580;-62
2021/08/28 09:34:20;0.00;0.00;0.62;0.00;0.00;0.62;3.10;2.50;;;26.60;35.20;;;;;;2245211;61;20571;-61
2021/08/28 09:36:58;0.00;0.00;0.62;0.00;0.00;0.62;3.17;1.93;;;26.60;35.10;;;;;;2246004;61;20384;-61
2021/08/28 09:39:40;0.00;0.00;0.62;0.00;0.00;0.62;2.30;2.10;;;26.60;35.10;;;;;;2246190;61;20718;-62
2021/08/28 09:42:08;0.00;0.00;0.62;0.00;0.00;0.62;3.20;2.53;;;26.60;35.10;;;;;;2245289;61;20382;-59
2021/08/28 09:44:39;0.00;0.00;0.62;0.00;0.00;0.62;2.80;2.23;;;26.70;35.20;;;;;;2246359;61;20405;-62
2021/08/28 09:47:11;0.00;0.00;0.62;0.00;0.00;0.62;2.27;2.07;;;26.70;35.20;;;;;;2246033;61;20378;-61
2021/08/28 09:49:42;0.00;0.00;0.62;0.00;0.00;0.62;2.73;2.13;;;26.70;35.20;;;;;;2245346;61;20427;-60
2021/08/28 09:52:13;0.00;0.00;0.62;0.00;0.00;0.62;2.83;2.03;;;26.70;35.10;;;;;;2246159;61;20382;-61
2021/08/28 09:54:40;0.00;0.00;0.62;0.00;0.00;0.62;2.73;2.10;;;26.70;35.10;;;;;;2246101;61;20351;-62
2021/08/28 09:57:07;0.00;0.00;0.62;0.00;0.00;0.62;2.70;1.97;;;26.70;35.10;;;;;;2245248;61;20370;-61
2021/08/28 09:59:33;0.00;0.00;0.62;0.00;0.00;0.62;2.90;1.90;;;26.70;35.10;;;;;;2246039;61;20573;-59
2021/08/28 10:02:03;0.00;0.00;0.62;0.00;0.00;0.62;3.03;2.70;;;26.70;35.00;;;;;;2246206;61;20426;-60
2021/08/28 10:04:29;0.00;0.00;0.62;0.00;0.00;0.62;2.77;1.93;;;26.70;35.00;;;;;;2245352;61;20355;-60
2021/08/28 10:06:58;0.00;0.00;0.62;0.00;0.00;0.62;2.17;1.97;;;26.70;35.00;;;;;;2245955;61;20372;-60
2021/08/28 10:09:25;0.00;0.00;0.62;0.00;0.00;0.62;2.93;1.80;;;26.70;35.00;;;;;;2246242;61;20365;-60
2021/08/28 10:11:51;0.00;0.00;0.62;0.00;0.00;0.62;2.27;2.00;;;26.70;35.00;;;;;;2245297;61;20583;-62
2021/08/28 10:14:20;0.00;0.00;0.62;0.00;0.00;0.62;2.20;1.80;;;26.70;35.00;;;;;;2245846;61;20358;-60
2021/08/28 10:16:47;0.00;0.00;0.62;0.00;0.00;0.62;2.13;1.70;;;26.70;35.00;;;;;;2246135;61;20672;-62
2021/08/28 10:19:15;0.00;0.00;0.62;0.00;0.00;0.62;2.23;1.70;;;26.80;35.00;;;;;;2245275;61;20355;-60
2021/08/28 10:21:43;0.00;0.00;0.62;0.00;0.00;0.62;2.57;2.13;;;26.70;34.90;;;;;;2246150;61;20346;-60
2021/08/28 10:24:13;0.00;0.00;0.62;0.00;0.00;0.62;1.77;1.67;;;26.70;34.90;;;;;;2246257;61;20382;-61
2021/08/28 10:26:40;0.00;0.00;0.62;0.00;0.00;0.62;2.57;2.00;;;26.70;34.90;;;;;;2245051;61;20458;-61
2021/08/28 10:29:06;0.00;0.00;0.62;0.00;0.00;0.62;2.47;1.80;;;26.80;35.00;;;;;;2246035;61;20434;-62
2021/08/28 10:31:32;0.00;0.00;0.62;0.00;0.00;0.62;1.90;1.67;;;26.80;35.00;;;;;;2246311;61;20453;-59
2021/08/28 10:34:00;0.00;0.00;0.62;0.00;0.00;0.62;2.40;2.20;;;26.80;35.00;;;;;;2241525;61;20347;-60
2021/08/28 10:36:26;0.00;0.00;0.62;0.00;0.00;0.62;2.17;1.90;;;26.80;35.00;;;;;;2245905;61;20683;-60
2021/08/28 10:38:53;0.00;0.00;0.62;0.00;0.00;0.62;2.70;1.77;;;26.80;35.00;;;;;;2246191;61;20713;-62
2021/08/28 10:41:22;0.00;0.00;0.62;0.00;0.00;0.62;2.47;1.70;;;26.80;35.00;;;;;;2245121;61;20382;-59
2021/08/28 10:43:48;0.00;0.00;0.62;0.00;0.00;0.62;1.63;1.33;;;26.80;35.00;;;;;;2246027;61;20423;-62
2021/08/28 10:46:18;0.00;0.00;0.62;0.00;0.00;0.62;2.53;1.80;;;26.80;34.90;;;;;;2242283;61;20355;-60
2021/08/28 10:49:02;0.00;0.00;0.62;0.00;0.00;0.62;2.30;1.80;;;26.80;34.90;;;;;;2244683;61;20366;-60
2021/08/28 10:51:33;0.00;0.00;0.62;0.00;0.00;0.62;1.60;1.37;;;26.80;34.90;;;;;;2242377;61;20350;-59
2021/08/28 10:54:03;0.00;0.00;0.62;0.00;0.00;0.62;2.60;1.63;;;26.80;35.00;;;;;;2245925;61;20357;-60
2021/08/28 10:56:43;0.00;0.00;0.62;0.00;0.00;0.62;1.90;1.63;;;26.80;34.90;;;;;;2245032;61;20374;-61
2021/08/28 10:59:23;0.00;0.00;0.62;0.00;0.00;0.62;2.63;2.10;;;26.80;34.90;;;;;;2242264;61;20455;-61
2021/08/28 11:01:57;0.00;0.00;0.62;0.00;0.00;0.62;2.10;1.90;;;26.80;34.90;;;;;;2245775;61;20362;-62
2021/08/28 11:04:32;0.00;0.00;0.62;0.00;0.00;0.62;2.27;1.77;;;26.80;34.90;;;;;;2245643;61;20358;-62
2021/08/28 11:07:22;0.00;0.00;0.62;0.00;0.00;0.62;2.40;1.90;;;26.80;34.90;;;;;;2245958;61;20416;-61